sensor_id;sensor_type;location;lat;lon;timestamp;P1;P2;P0
30713;PMS7003;17465;47.934;33.430;2023-03-01T00:00:31;25.50;24.00;10.25
30713;PMS7003;17465;47.934;33.430;2023-03-01T00:03:02;26.75;22.00;8.00
30713;PMS7003;17465;47.934;33.430;2023-03-01T00:05:33;19.25;15.75;7.50
30713;PMS7003;17465;47.934;33.430;2023-03-01T00:08:04;25.25;21.50;7.00
30713;PMS7003;17465;47.934;33.430;2023-03-01T00:10:35;20.00;18.75;8.00
30713;PMS7003;17465;47.934;33.430;2023-03-01T00:13:05;20.75;17.00;7.00
30713;PMS7003;17465;47.934;33.430;2023-03-01T00:15:41;30.50;21.75;9.50
30713;PMS7003;17465;47.934;33.430;2023-03-01T00:18:09;18.25;18.25;10.00
30713;PMS7003;17465;47.934;33.430;2023-03-01T00:20:41;22.50;19.50;8.50
30713;PMS7003;17465;47.934;33.430;2023-03-01T00:23:13;18.00;15.50;2.50
30713;PMS7003;17465;47.934;33.430;2023-03-01T00:25:44;19.75;19.75;7.00
30713;PMS7003;17465;47.934;33.430;2023-03-01T00:28:15;22.50;18.00;8.00
30713;PMS7003;17465;47.934;33.430;2023-03-01T00:30:46;28.75;22.75;10.50
30713;PMS7003;17465;47.934;33.430;2023-03-01T00:33:17;23.50;22.00;10.00
30713;PMS7003;17465;47.934;33.430;2023-03-01T00:35:48;18.00;17.00;7.25
30713;PMS7003;17465;47.934;33.430;2023-03-01T00:38:18;21.50;20.50;9.25
30713;PMS7003;17465;47.934;33.430;2023-03-01T00:40:48;23.25;19.00;8.00
30713;PMS7003;17465;47.934;33.430;2023-03-01T00:43:20;20.75;15.50;6.50
30713;PMS7003;17465;47.934;33.430;2023-03-01T00:45:50;23.50;21.50;10.00
30713;PMS7003;17465;47.934;33.430;2023-03-01T00:48:21;23.50;21.00;10.50
30713;PMS7003;17465;47.934;33.430;2023-03-01T00:50:53;27.00;20.75;12.50
30713;PMS7003;17465;47.934;33.430;2023-03-01T00:53:23;112.50;92.50;45.00
30713;PMS7003;17465;47.934;33.430;2023-03-01T00:55:56;28.25;21.50;8.25
30713;PMS7003;17465;47.934;33.430;2023-03-01T00:58:27;19.50;17.25;8.00
30713;PMS7003;17465;47.934;33.430;2023-03-01T01:00:58;24.00;21.25;9.25
30713;PMS7003;17465;47.934;33.430;2023-03-01T01:03:29;31.50;24.50;10.25
30713;PMS7003;17465;47.934;33.430;2023-03-01T01:05:59;25.50;25.50;13.25
30713;PMS7003;17465;47.934;33.430;2023-03-01T01:08:30;40.75;33.25;19.75
30713;PMS7003;17465;47.934;33.430;2023-03-01T01:11:00;38.50;36.75;18.50
30713;PMS7003;17465;47.934;33.430;2023-03-01T01:13:33;48.00;38.50;26.75
30713;PMS7003;17465;47.934;33.430;2023-03-01T01:16:03;34.25;29.50;18.50
30713;PMS7003;17465;47.934;33.430;2023-03-01T01:18:34;38.25;31.25;21.25
30713;PMS7003;17465;47.934;33.430;2023-03-01T01:21:07;24.00;22.00;11.50
30713;PMS7003;17465;47.934;33.430;2023-03-01T01:23:39;26.75;26.75;18.75
30713;PMS7003;17465;47.934;33.430;2023-03-01T01:26:19;31.00;28.00;14.50
30713;PMS7003;17465;47.934;33.430;2023-03-01T01:28:51;31.00;27.00;15.00
30713;PMS7003;17465;47.934;33.430;2023-03-01T01:31:23;29.50;28.50;15.25
30713;PMS7003;17465;47.934;33.430;2023-03-01T01:33:54;38.00;35.25;18.75
30713;PMS7003;17465;47.934;33.430;2023-03-01T01:36:25;33.75;33.50;20.50
30713;PMS7003;17465;47.934;33.430;2023-03-01T01:38:56;23.00;21.75;13.00
30713;PMS7003;17465;47.934;33.430;2023-03-01T01:41:27;33.25;27.50;13.50
30713;PMS7003;17465;47.934;33.430;2023-03-01T01:44:19;33.25;30.25;16.25
30713;PMS7003;17465;47.934;33.430;2023-03-01T01:47:00;27.00;25.00;12.50
30713;PMS7003;17465;47.934;33.430;2023-03-01T01:52:09;33.75;30.00;17.75
30713;PMS7003;17465;47.934;33.430;2023-03-01T01:55:03;30.50;28.75;16.50
30713;PMS7003;17465;47.934;33.430;2023-03-01T01:57:39;29.25;27.25;12.00
30713;PMS7003;17465;47.934;33.430;2023-03-01T02:00:13;37.50;32.50;18.00
30713;PMS7003;17465;47.934;33.430;2023-03-01T02:02:46;36.00;33.25;19.00
30713;PMS7003;17465;47.934;33.430;2023-03-01T02:08:15;30.50;30.00;16.00
30713;PMS7003;17465;47.934;33.430;2023-03-01T02:10:50;30.75;25.25;17.50
30713;PMS7003;17465;47.934;33.430;2023-03-01T02:13:48;32.25;32.25;21.00
30713;PMS7003;17465;47.934;33.430;2023-03-01T02:16:19;36.50;32.00;18.50
30713;PMS7003;17465;47.934;33.430;2023-03-01T02:18:50;24.25;21.50;13.25
30713;PMS7003;17465;47.934;33.430;2023-03-01T02:21:34;34.75;33.00;23.50
30713;PMS7003;17465;47.934;33.430;2023-03-01T02:24:08;31.25;28.50;16.75
30713;PMS7003;17465;47.934;33.430;2023-03-01T02:26:52;31.00;30.50;18.25
30713;PMS7003;17465;47.934;33.430;2023-03-01T02:29:21;35.25;34.25;21.25
30713;PMS7003;17465;47.934;33.430;2023-03-01T02:31:53;31.50;28.25;15.75
30713;PMS7003;17465;47.934;33.430;2023-03-01T02:34:26;38.00;36.00;21.25
30713;PMS7003;17465;47.934;33.430;2023-03-01T02:37:05;34.50;33.75;24.25
30713;PMS7003;17465;47.934;33.430;2023-03-01T02:39:34;45.50;45.00;33.75
30713;PMS7003;17465;47.934;33.430;2023-03-01T02:42:13;33.75;32.00;25.75
30713;PMS7003;17465;47.934;33.430;2023-03-01T02:44:46;25.25;25.25;22.00
30713;PMS7003;17465;47.934;33.430;2023-03-01T02:47:18;40.00;34.00;25.00
30713;PMS7003;17465;47.934;33.430;2023-03-01T02:49:55;31.75;31.75;24.50
30713;PMS7003;17465;47.934;33.430;2023-03-01T02:55:06;23.25;19.50;15.00
30713;PMS7003;17465;47.934;33.430;2023-03-01T02:57:45;37.75;32.50;22.00
30713;PMS7003;17465;47.934;33.430;2023-03-01T03:00:24;43.00;40.00;28.00
30713;PMS7003;17465;47.934;33.430;2023-03-01T03:03:00;34.25;32.25;21.50
30713;PMS7003;17465;47.934;33.430;2023-03-01T03:05:33;25.00;25.00;15.50
30713;PMS7003;17465;47.934;33.430;2023-03-01T03:08:05;35.25;27.50;16.25
30713;PMS7003;17465;47.934;33.430;2023-03-01T03:10:37;26.75;24.50;14.75
30713;PMS7003;17465;47.934;33.430;2023-03-01T03:13:11;26.00;23.50;10.75
30713;PMS7003;17465;47.934;33.430;2023-03-01T03:15:43;30.00;23.50;11.75
30713;PMS7003;17465;47.934;33.430;2023-03-01T03:18:15;30.00;26.00;17.50
30713;PMS7003;17465;47.934;33.430;2023-03-01T03:20:46;29.00;27.25;16.00
30713;PMS7003;17465;47.934;33.430;2023-03-01T03:23:18;31.50;29.00;17.25
30713;PMS7003;17465;47.934;33.430;2023-03-01T03:25:49;29.50;26.50;17.00
30713;PMS7003;17465;47.934;33.430;2023-03-01T03:28:21;29.75;28.25;16.00
30713;PMS7003;17465;47.934;33.430;2023-03-01T03:30:51;19.50;18.00;10.00
30713;PMS7003;17465;47.934;33.430;2023-03-01T03:33:21;21.25;19.50;12.00
30713;PMS7003;17465;47.934;33.430;2023-03-01T03:35:52;23.75;23.25;12.75
30713;PMS7003;17465;47.934;33.430;2023-03-01T03:38:22;27.50;24.25;12.75
30713;PMS7003;17465;47.934;33.430;2023-03-01T03:41:00;19.50;18.75;6.00
30713;PMS7003;17465;47.934;33.430;2023-03-01T03:43:34;21.75;18.50;11.50
30713;PMS7003;17465;47.934;33.430;2023-03-01T03:46:06;29.25;26.25;14.25
30713;PMS7003;17465;47.934;33.430;2023-03-01T03:48:40;26.75;24.50;12.00
30713;PMS7003;17465;47.934;33.430;2023-03-01T03:51:13;22.50;20.25;10.00
30713;PMS7003;17465;47.934;33.430;2023-03-01T03:53:45;25.75;22.25;9.75
30713;PMS7003;17465;47.934;33.430;2023-03-01T03:56:15;26.00;26.00;15.75
30713;PMS7003;17465;47.934;33.430;2023-03-01T03:58:46;20.75;20.25;11.00
30713;PMS7003;17465;47.934;33.430;2023-03-01T04:01:17;27.25;24.00;11.50
30713;PMS7003;17465;47.934;33.430;2023-03-01T04:03:48;18.75;18.75;10.50
30713;PMS7003;17465;47.934;33.430;2023-03-01T04:06:18;25.00;23.00;12.75
30713;PMS7003;17465;47.934;33.430;2023-03-01T04:08:49;26.00;22.25;13.50
30713;PMS7003;17465;47.934;33.430;2023-03-01T04:11:20;31.50;28.50;13.50
30713;PMS7003;17465;47.934;33.430;2023-03-01T04:13:50;30.00;24.75;12.25
30713;PMS7003;17465;47.934;33.430;2023-03-01T04:16:22;21.50;21.50;12.75
30713;PMS7003;17465;47.934;33.430;2023-03-01T04:18:53;24.00;23.50;11.75
30713;PMS7003;17465;47.934;33.430;2023-03-01T04:21:23;30.50;23.50;12.75
30713;PMS7003;17465;47.934;33.430;2023-03-01T04:23:54;27.75;24.50;15.25
30713;PMS7003;17465;47.934;33.430;2023-03-01T04:26:25;30.75;29.00;16.00
30713;PMS7003;17465;47.934;33.430;2023-03-01T04:28:56;29.50;26.50;15.50
30713;PMS7003;17465;47.934;33.430;2023-03-01T04:31:27;18.00;16.75;8.00
30713;PMS7003;17465;47.934;33.430;2023-03-01T04:33:57;22.75;19.00;12.00
30713;PMS7003;17465;47.934;33.430;2023-03-01T04:36:28;22.75;21.50;12.75
30713;PMS7003;17465;47.934;33.430;2023-03-01T04:39:00;22.00;22.00;12.00
30713;PMS7003;17465;47.934;33.430;2023-03-01T04:41:32;32.75;28.75;16.50
30713;PMS7003;17465;47.934;33.430;2023-03-01T04:44:03;22.00;17.00;9.50
30713;PMS7003;17465;47.934;33.430;2023-03-01T04:46:35;26.25;24.00;15.00
30713;PMS7003;17465;47.934;33.430;2023-03-01T04:49:10;27.75;21.75;13.50
30713;PMS7003;17465;47.934;33.430;2023-03-01T04:51:40;30.00;24.25;12.50
30713;PMS7003;17465;47.934;33.430;2023-03-01T04:54:11;26.50;26.50;12.00
30713;PMS7003;17465;47.934;33.430;2023-03-01T04:56:42;22.75;22.25;12.25
30713;PMS7003;17465;47.934;33.430;2023-03-01T04:59:13;29.50;29.50;15.50
30713;PMS7003;17465;47.934;33.430;2023-03-01T05:01:43;26.50;24.00;12.75
30713;PMS7003;17465;47.934;33.430;2023-03-01T05:04:14;28.25;26.75;11.00
30713;PMS7003;17465;47.934;33.430;2023-03-01T05:06:45;29.75;28.00;14.00
30713;PMS7003;17465;47.934;33.430;2023-03-01T05:09:15;28.75;24.00;12.50
30713;PMS7003;17465;47.934;33.430;2023-03-01T05:11:46;24.00;23.25;15.00
30713;PMS7003;17465;47.934;33.430;2023-03-01T05:14:17;29.00;28.50;15.00
30713;PMS7003;17465;47.934;33.430;2023-03-01T05:16:47;34.50;34.25;18.75
30713;PMS7003;17465;47.934;33.430;2023-03-01T05:19:17;38.00;36.25;20.00
30713;PMS7003;17465;47.934;33.430;2023-03-01T05:21:48;32.25;29.50;19.50
30713;PMS7003;17465;47.934;33.430;2023-03-01T05:24:19;26.75;23.50;13.25
30713;PMS7003;17465;47.934;33.430;2023-03-01T05:26:49;27.00;27.00;15.25
30713;PMS7003;17465;47.934;33.430;2023-03-01T05:29:20;40.25;32.75;17.50
30713;PMS7003;17465;47.934;33.430;2023-03-01T05:31:53;25.50;24.50;13.25
30713;PMS7003;17465;47.934;33.430;2023-03-01T05:34:50;24.25;23.25;9.25
30713;PMS7003;17465;47.934;33.430;2023-03-01T05:37:20;28.50;28.00;16.00
30713;PMS7003;17465;47.934;33.430;2023-03-01T05:39:51;32.50;23.25;13.25
30713;PMS7003;17465;47.934;33.430;2023-03-01T05:42:21;26.00;21.00;10.50
30713;PMS7003;17465;47.934;33.430;2023-03-01T05:44:52;38.50;36.25;23.75
30713;PMS7003;17465;47.934;33.430;2023-03-01T05:47:22;26.25;25.50;15.25
30713;PMS7003;17465;47.934;33.430;2023-03-01T05:49:53;31.50;26.00;17.25
30713;PMS7003;17465;47.934;33.430;2023-03-01T05:52:58;32.75;32.00;17.50
30713;PMS7003;17465;47.934;33.430;2023-03-01T05:55:21;46.00;39.75;26.00
30713;PMS7003;17465;47.934;33.430;2023-03-01T05:57:57;34.00;30.50;18.00
30713;PMS7003;17465;47.934;33.430;2023-03-01T06:01:02;32.75;28.50;15.75
30713;PMS7003;17465;47.934;33.430;2023-03-01T06:03:51;42.50;38.50;26.25
30713;PMS7003;17465;47.934;33.430;2023-03-01T06:06:23;34.75;32.00;19.00
30713;PMS7003;17465;47.934;33.430;2023-03-01T06:08:56;35.25;31.50;19.00
30713;PMS7003;17465;47.934;33.430;2023-03-01T06:11:46;29.50;27.00;17.50
30713;PMS7003;17465;47.934;33.430;2023-03-01T06:14:08;29.00;27.00;16.25
30713;PMS7003;17465;47.934;33.430;2023-03-01T06:17:08;30.75;28.00;15.00
30713;PMS7003;17465;47.934;33.430;2023-03-01T06:19:36;24.00;22.50;11.25
30713;PMS7003;17465;47.934;33.430;2023-03-01T06:22:13;21.00;16.00;7.00
30713;PMS7003;17465;47.934;33.430;2023-03-01T06:24:41;22.25;19.50;6.25
30713;PMS7003;17465;47.934;33.430;2023-03-01T06:27:16;26.00;22.00;11.00
30713;PMS7003;17465;47.934;33.430;2023-03-01T06:29:53;24.00;22.00;8.75
30713;PMS7003;17465;47.934;33.430;2023-03-01T06:32:27;23.50;19.75;9.00
30713;PMS7003;17465;47.934;33.430;2023-03-01T06:35:00;20.25;18.50;8.25
30713;PMS7003;17465;47.934;33.430;2023-03-01T06:37:31;74.25;62.25;47.25
30713;PMS7003;17465;47.934;33.430;2023-03-01T06:40:03;28.00;25.25;11.75
30713;PMS7003;17465;47.934;33.430;2023-03-01T06:42:38;30.25;23.50;15.00
30713;PMS7003;17465;47.934;33.430;2023-03-01T06:45:08;24.25;22.25;14.00
30713;PMS7003;17465;47.934;33.430;2023-03-01T06:47:46;24.50;20.50;12.50
30713;PMS7003;17465;47.934;33.430;2023-03-01T06:50:16;22.50;20.75;10.50
30713;PMS7003;17465;47.934;33.430;2023-03-01T06:52:55;95.20;87.20;78.20
30713;PMS7003;17465;47.934;33.430;2023-03-01T06:55:29;45.50;41.75;41.50
30713;PMS7003;17465;47.934;33.430;2023-03-01T06:57:55;17.25;16.75;9.50
30713;PMS7003;17465;47.934;33.430;2023-03-01T07:00:27;25.25;21.75;12.50
30713;PMS7003;17465;47.934;33.430;2023-03-01T07:05:49;28.00;24.75;15.00
30713;PMS7003;17465;47.934;33.430;2023-03-01T07:08:21;22.75;20.50;14.50
30713;PMS7003;17465;47.934;33.430;2023-03-01T07:11:00;26.00;26.00;14.50
30713;PMS7003;17465;47.934;33.430;2023-03-01T07:13:29;22.25;20.50;12.50
30713;PMS7003;17465;47.934;33.430;2023-03-01T07:16:01;23.00;22.75;13.25
30713;PMS7003;17465;47.934;33.430;2023-03-01T07:18:32;18.25;17.50;9.00
30713;PMS7003;17465;47.934;33.430;2023-03-01T07:21:07;20.25;19.50;10.25
30713;PMS7003;17465;47.934;33.430;2023-03-01T07:23:40;30.00;28.50;16.25
30713;PMS7003;17465;47.934;33.430;2023-03-01T07:26:16;24.00;23.00;14.25
30713;PMS7003;17465;47.934;33.430;2023-03-01T07:28:46;26.50;26.25;14.75
30713;PMS7003;17465;47.934;33.430;2023-03-01T07:31:17;24.25;24.25;16.75
30713;PMS7003;17465;47.934;33.430;2023-03-01T07:33:47;30.75;28.50;17.25
30713;PMS7003;17465;47.934;33.430;2023-03-01T07:36:18;31.25;28.25;18.25
30713;PMS7003;17465;47.934;33.430;2023-03-01T07:38:50;24.75;23.00;15.00
30713;PMS7003;17465;47.934;33.430;2023-03-01T07:41:21;23.75;23.75;15.50
30713;PMS7003;17465;47.934;33.430;2023-03-01T07:43:52;17.75;17.75;9.75
30713;PMS7003;17465;47.934;33.430;2023-03-01T07:46:22;23.50;23.00;10.75
30713;PMS7003;17465;47.934;33.430;2023-03-01T07:48:53;19.50;19.00;10.00
30713;PMS7003;17465;47.934;33.430;2023-03-01T07:51:24;28.75;25.25;14.50
30713;PMS7003;17465;47.934;33.430;2023-03-01T07:53:54;25.00;22.75;15.25
30713;PMS7003;17465;47.934;33.430;2023-03-01T07:56:30;25.75;25.75;13.50
30713;PMS7003;17465;47.934;33.430;2023-03-01T07:58:58;23.00;22.75;14.00
30713;PMS7003;17465;47.934;33.430;2023-03-01T08:01:36;24.00;21.75;13.75
30713;PMS7003;17465;47.934;33.430;2023-03-01T08:04:05;25.00;24.00;15.25
30713;PMS7003;17465;47.934;33.430;2023-03-01T08:06:38;22.00;22.00;13.00
30713;PMS7003;17465;47.934;33.430;2023-03-01T08:09:09;25.50;23.50;14.25
30713;PMS7003;17465;47.934;33.430;2023-03-01T08:11:41;20.00;18.75;9.00
30713;PMS7003;17465;47.934;33.430;2023-03-01T08:14:13;19.25;19.25;10.75
30713;PMS7003;17465;47.934;33.430;2023-03-01T08:16:45;25.50;24.25;17.00
30713;PMS7003;17465;47.934;33.430;2023-03-01T08:19:17;24.00;22.25;12.25
30713;PMS7003;17465;47.934;33.430;2023-03-01T08:21:48;21.50;20.00;12.50
30713;PMS7003;17465;47.934;33.430;2023-03-01T08:24:19;22.00;17.00;11.25
30713;PMS7003;17465;47.934;33.430;2023-03-01T08:26:49;24.00;22.50;11.75
30713;PMS7003;17465;47.934;33.430;2023-03-01T08:29:20;22.00;22.00;11.25
30713;PMS7003;17465;47.934;33.430;2023-03-01T08:31:52;15.25;14.50;10.25
30713;PMS7003;17465;47.934;33.430;2023-03-01T08:34:23;19.50;16.50;10.00
30713;PMS7003;17465;47.934;33.430;2023-03-01T08:36:53;16.00;14.75;8.25
30713;PMS7003;17465;47.934;33.430;2023-03-01T08:39:24;15.25;15.00;6.25
30713;PMS7003;17465;47.934;33.430;2023-03-01T08:41:54;16.25;14.00;10.00
30713;PMS7003;17465;47.934;33.430;2023-03-01T08:44:24;16.75;16.00;9.50
30713;PMS7003;17465;47.934;33.430;2023-03-01T08:46:56;20.75;20.75;13.00
30713;PMS7003;17465;47.934;33.430;2023-03-01T08:49:28;20.50;19.00;10.00
30713;PMS7003;17465;47.934;33.430;2023-03-01T08:51:59;20.25;20.00;11.00
30713;PMS7003;17465;47.934;33.430;2023-03-01T08:54:31;17.00;15.50;9.25
30713;PMS7003;17465;47.934;33.430;2023-03-01T08:57:02;18.75;16.50;10.50
30713;PMS7003;17465;47.934;33.430;2023-03-01T08:59:35;20.00;18.25;12.00
30713;PMS7003;17465;47.934;33.430;2023-03-01T09:02:10;17.25;17.25;10.25
30713;PMS7003;17465;47.934;33.430;2023-03-01T09:04:39;21.75;17.25;8.25
30713;PMS7003;17465;47.934;33.430;2023-03-01T09:07:10;13.50;13.00;8.00
30713;PMS7003;17465;47.934;33.430;2023-03-01T09:09:41;16.00;16.00;10.50
30713;PMS7003;17465;47.934;33.430;2023-03-01T09:12:11;15.00;13.50;7.75
30713;PMS7003;17465;47.934;33.430;2023-03-01T09:14:42;18.00;18.00;11.00
30713;PMS7003;17465;47.934;33.430;2023-03-01T09:17:19;17.75;16.50;12.75
30713;PMS7003;17465;47.934;33.430;2023-03-01T09:19:45;19.00;17.25;9.00
30713;PMS7003;17465;47.934;33.430;2023-03-01T09:22:16;16.25;14.75;10.00
30713;PMS7003;17465;47.934;33.430;2023-03-01T09:24:47;17.50;16.00;11.00
30713;PMS7003;17465;47.934;33.430;2023-03-01T09:27:17;19.00;19.00;11.75
30713;PMS7003;17465;47.934;33.430;2023-03-01T09:29:48;17.50;16.25;9.75
30713;PMS7003;17465;47.934;33.430;2023-03-01T09:32:18;17.00;16.75;9.25
30713;PMS7003;17465;47.934;33.430;2023-03-01T09:34:49;19.00;15.25;9.25
30713;PMS7003;17465;47.934;33.430;2023-03-01T09:37:19;13.75;12.50;7.00
30713;PMS7003;17465;47.934;33.430;2023-03-01T09:39:50;18.25;16.25;12.00
30713;PMS7003;17465;47.934;33.430;2023-03-01T09:42:20;16.75;12.00;7.50
30713;PMS7003;17465;47.934;33.430;2023-03-01T09:44:53;14.60;12.60;8.00
30713;PMS7003;17465;47.934;33.430;2023-03-01T09:47:43;12.00;12.00;6.20
30713;PMS7003;17465;47.934;33.430;2023-03-01T09:50:15;17.20;15.00;7.40
30713;PMS7003;17465;47.934;33.430;2023-03-01T09:52:50;16.00;14.00;8.60
30713;PMS7003;17465;47.934;33.430;2023-03-01T09:55:38;7.60;7.60;4.80
30713;PMS7003;17465;47.934;33.430;2023-03-01T10:00:56;9.00;8.00;4.50
30713;PMS7003;17465;47.934;33.430;2023-03-01T10:03:43;11.00;9.25;5.50
30713;PMS7003;17465;47.934;33.430;2023-03-01T10:06:21;8.75;7.25;4.00
30713;PMS7003;17465;47.934;33.430;2023-03-01T10:08:56;12.00;11.00;6.50
30713;PMS7003;17465;47.934;33.430;2023-03-01T10:11:32;7.50;7.50;5.00
30713;PMS7003;17465;47.934;33.430;2023-03-01T10:14:33;10.25;9.50;5.25
30713;PMS7003;17465;47.934;33.430;2023-03-01T10:17:02;15.00;12.75;5.75
30713;PMS7003;17465;47.934;33.430;2023-03-01T10:19:36;10.75;10.75;7.50
30713;PMS7003;17465;47.934;33.430;2023-03-01T10:22:42;3.75;3.75;3.00
30713;PMS7003;17465;47.934;33.430;2023-03-01T10:25:13;14.50;13.25;7.00
30713;PMS7003;17465;47.934;33.430;2023-03-01T10:27:54;9.25;8.00;3.25
30713;PMS7003;17465;47.934;33.430;2023-03-01T10:30:33;12.50;10.75;6.00
30713;PMS7003;17465;47.934;33.430;2023-03-01T10:33:15;11.25;11.25;5.75
30713;PMS7003;17465;47.934;33.430;2023-03-01T10:35:44;8.25;8.25;4.00
30713;PMS7003;17465;47.934;33.430;2023-03-01T10:38:15;13.50;13.50;6.00
30713;PMS7003;17465;47.934;33.430;2023-03-01T10:43:32;9.50;9.50;5.25
30713;PMS7003;17465;47.934;33.430;2023-03-01T10:46:18;12.75;10.75;6.50
30713;PMS7003;17465;47.934;33.430;2023-03-01T10:48:46;11.75;11.75;6.25
30713;PMS7003;17465;47.934;33.430;2023-03-01T10:51:25;12.25;11.50;6.00
30713;PMS7003;17465;47.934;33.430;2023-03-01T10:53:59;9.25;9.25;4.75
30713;PMS7003;17465;47.934;33.430;2023-03-01T10:56:45;11.50;11.50;6.75
30713;PMS7003;17465;47.934;33.430;2023-03-01T10:59:09;11.50;10.50;5.00
30713;PMS7003;17465;47.934;33.430;2023-03-01T11:01:40;12.25;11.00;7.00
30713;PMS7003;17465;47.934;33.430;2023-03-01T11:04:19;12.25;12.00;6.50
30713;PMS7003;17465;47.934;33.430;2023-03-01T11:06:57;11.75;8.25;4.00
30713;PMS7003;17465;47.934;33.430;2023-03-01T11:09:23;8.50;8.50;4.50
30713;PMS7003;17465;47.934;33.430;2023-03-01T11:11:56;13.25;12.25;7.00
30713;PMS7003;17465;47.934;33.430;2023-03-01T11:14:35;15.75;13.25;7.00
30713;PMS7003;17465;47.934;33.430;2023-03-01T11:17:04;10.25;10.25;5.00
30713;PMS7003;17465;47.934;33.430;2023-03-01T11:19:37;11.75;10.00;5.25
30713;PMS7003;17465;47.934;33.430;2023-03-01T11:22:12;13.75;12.75;8.50
30713;PMS7003;17465;47.934;33.430;2023-03-01T11:24:52;15.50;13.25;7.00
30713;PMS7003;17465;47.934;33.430;2023-03-01T11:27:36;11.75;10.75;6.50
30713;PMS7003;17465;47.934;33.430;2023-03-01T11:33:03;11.75;11.75;6.00
30713;PMS7003;17465;47.934;33.430;2023-03-01T11:36:35;13.25;12.25;8.25
30713;PMS7003;17465;47.934;33.430;2023-03-01T11:38:28;14.25;12.00;5.75
30713;PMS7003;17465;47.934;33.430;2023-03-01T11:41:21;12.75;11.00;9.00
30713;PMS7003;17465;47.934;33.430;2023-03-01T11:44:03;12.50;11.00;6.50
30713;PMS7003;17465;47.934;33.430;2023-03-01T11:46:43;14.75;13.50;8.75
30713;PMS7003;17465;47.934;33.430;2023-03-01T11:52:48;14.25;13.75;7.50
30713;PMS7003;17465;47.934;33.430;2023-03-01T12:12:26;10.75;10.75;5.75
30713;PMS7003;17465;47.934;33.430;2023-03-01T12:20:50;14.50;14.00;5.50
30713;PMS7003;17465;47.934;33.430;2023-03-01T12:23:50;15.50;13.75;8.00
30713;PMS7003;17465;47.934;33.430;2023-03-01T12:26:32;11.50;11.00;6.00
30713;PMS7003;17465;47.934;33.430;2023-03-01T12:37:44;10.00;7.00;3.25
30713;PMS7003;17465;47.934;33.430;2023-03-01T12:43:44;9.75;9.75;4.50
30713;PMS7003;17465;47.934;33.430;2023-03-01T12:46:41;6.75;6.75;4.00
30713;PMS7003;17465;47.934;33.430;2023-03-01T12:52:09;12.00;10.75;5.00
30713;PMS7003;17465;47.934;33.430;2023-03-01T12:54:51;12.25;12.25;6.25
30713;PMS7003;17465;47.934;33.430;2023-03-01T12:57:28;10.00;8.25;5.00
30713;PMS7003;17465;47.934;33.430;2023-03-01T13:03:25;11.25;10.25;5.50
30713;PMS7003;17465;47.934;33.430;2023-03-01T13:06:08;11.00;11.00;5.50
30713;PMS7003;17465;47.934;33.430;2023-03-01T13:08:56;10.75;9.50;5.00
30713;PMS7003;17465;47.934;33.430;2023-03-01T13:11:34;10.50;10.50;7.00
30713;PMS7003;17465;47.934;33.430;2023-03-01T13:16:58;11.00;9.75;3.25
30713;PMS7003;17465;47.934;33.430;2023-03-01T13:19:30;14.25;11.25;5.25
30713;PMS7003;17465;47.934;33.430;2023-03-01T13:22:01;9.50;9.50;7.25
30713;PMS7003;17465;47.934;33.430;2023-03-01T13:24:41;9.00;9.00;4.00
30713;PMS7003;17465;47.934;33.430;2023-03-01T13:29:49;15.00;15.00;7.00
30713;PMS7003;17465;47.934;33.430;2023-03-01T13:32:25;14.75;13.00;7.00
30713;PMS7003;17465;47.934;33.430;2023-03-01T13:37:47;16.75;14.50;8.50
30713;PMS7003;17465;47.934;33.430;2023-03-01T13:42:58;16.50;16.25;10.00
30713;PMS7003;17465;47.934;33.430;2023-03-01T13:50:47;15.50;15.50;9.00
30713;PMS7003;17465;47.934;33.430;2023-03-01T13:53:20;17.00;14.50;8.00
30713;PMS7003;17465;47.934;33.430;2023-03-01T13:56:08;15.75;15.25;7.75
30713;PMS7003;17465;47.934;33.430;2023-03-01T13:58:44;17.00;16.00;9.25
30713;PMS7003;17465;47.934;33.430;2023-03-01T14:01:31;18.50;16.50;7.75
30713;PMS7003;17465;47.934;33.430;2023-03-01T14:04:22;11.75;11.00;7.00
30713;PMS7003;17465;47.934;33.430;2023-03-01T14:07:20;12.25;10.00;5.75
30713;PMS7003;17465;47.934;33.430;2023-03-01T14:09:53;12.00;11.00;6.00
30713;PMS7003;17465;47.934;33.430;2023-03-01T14:17:58;17.75;15.25;6.25
30713;PMS7003;17465;47.934;33.430;2023-03-01T14:20:37;11.25;11.00;5.00
30713;PMS7003;17465;47.934;33.430;2023-03-01T14:23:12;15.00;13.25;6.50
30713;PMS7003;17465;47.934;33.430;2023-03-01T14:25:56;13.25;10.00;4.50
30713;PMS7003;17465;47.934;33.430;2023-03-01T14:28:29;10.75;10.50;6.25
30713;PMS7003;17465;47.934;33.430;2023-03-01T14:31:29;7.00;6.00;2.25
30713;PMS7003;17465;47.934;33.430;2023-03-01T14:33:56;12.25;12.00;6.00
30713;PMS7003;17465;47.934;33.430;2023-03-01T14:36:28;11.50;11.00;6.00
30713;PMS7003;17465;47.934;33.430;2023-03-01T14:39:01;11.25;10.50;5.75
30713;PMS7003;17465;47.934;33.430;2023-03-01T14:41:35;17.25;16.25;9.25
30713;PMS7003;17465;47.934;33.430;2023-03-01T14:44:11;16.25;13.75;5.50
30713;PMS7003;17465;47.934;33.430;2023-03-01T14:46:44;17.75;13.75;7.75
30713;PMS7003;17465;47.934;33.430;2023-03-01T14:49:17;16.25;14.50;6.50
30713;PMS7003;17465;47.934;33.430;2023-03-01T14:52:02;17.75;11.25;5.25
30713;PMS7003;17465;47.934;33.430;2023-03-01T14:54:53;22.75;20.00;12.25
30713;PMS7003;17465;47.934;33.430;2023-03-01T14:57:14;48.50;39.75;28.50
30713;PMS7003;17465;47.934;33.430;2023-03-01T15:00:05;44.75;40.00;33.25
30713;PMS7003;17465;47.934;33.430;2023-03-01T15:02:38;47.00;38.00;34.00
30713;PMS7003;17465;47.934;33.430;2023-03-01T15:05:09;60.25;50.50;40.50
30713;PMS7003;17465;47.934;33.430;2023-03-01T15:07:43;78.75;67.75;58.25
30713;PMS7003;17465;47.934;33.430;2023-03-01T15:10:20;87.00;74.50;80.50
30713;PMS7003;17465;47.934;33.430;2023-03-01T15:12:53;91.50;82.75;87.75
30713;PMS7003;17465;47.934;33.430;2023-03-01T15:15:42;95.25;90.00;80.75
30713;PMS7003;17465;47.934;33.430;2023-03-01T15:18:20;104.00;99.60;91.80
30713;PMS7003;17465;47.934;33.430;2023-03-01T15:24:07;105.80;103.00;94.60
30713;PMS7003;17465;47.934;33.430;2023-03-01T15:27:04;128.50;126.50;120.75
30713;PMS7003;17465;47.934;33.430;2023-03-01T15:29:41;108.00;106.25;100.50
30713;PMS7003;17465;47.934;33.430;2023-03-01T15:32:25;102.50;99.75;91.25
30713;PMS7003;17465;47.934;33.430;2023-03-01T15:41:24;111.60;104.40;94.80
30713;PMS7003;17465;47.934;33.430;2023-03-01T15:46:58;49.25;44.00;30.75
30713;PMS7003;17465;47.934;33.430;2023-03-01T15:49:39;55.75;48.50;38.50
30713;PMS7003;17465;47.934;33.430;2023-03-01T15:54:56;57.50;50.25;39.25
30713;PMS7003;17465;47.934;33.430;2023-03-01T15:57:31;69.25;60.00;51.50
30713;PMS7003;17465;47.934;33.430;2023-03-01T16:00:05;72.25;62.25;53.25